首页
METAR-TAF:

METAR-TAF

机场 :

巴黎夏尔·戴高乐机场

巴黎戴高乐, 法国

纬度: 49-01N, 经度: 002-32E, 海拔: 118米

当前天气观测

该预报发布于26分钟前的18:00 UTC
风速7节,风向南转南东
温度 6°C
湿度 70%
气压 1018 hPa
能见度10公里或以上
多云层高于4600英尺

METAR: LFPG 191800Z 15007KT 9999 BKN046 06/01 Q1018 NOSIG

时间: 19:26 (18:26 UTC)

预报

该预报发布于1小时和26分钟前的17:00 UTC
预报有效从19日的 18点(UTC)到 20日的 24点(UTC)
风速5节,风向南转南东
能见度10公里或以上
多云层高于4500英尺
成为
从 19日的 20点(UTC)到 19日的 22点(UTC)
能见度10公里或以上
1500米以下无云,无积雨云
几率 40%
从 20日的 01点(UTC)到 20日的 10点(UTC)
能見度: 3500
轻雾
几率 30% :
短暂存在
从 20日的 03点(UTC)到 20日的 09点(UTC)
能見度: 0600
散云层高于100英尺
多云层高于300英尺
碎片雾
成为
从 20日的 07点(UTC)到 20日的 09点(UTC)
风速10节,风向
几率 30%
从 20日的 23点(UTC)到 20日的 24点(UTC)
能見度: 3000
轻雾

TAF: LFPG 191700Z 1918/2024 16005KT 9999 BKN045 TX06/2014Z TNM00/2006Z BECMG 1920/1922 CAVOK PROB40 2001/2010 3500 BR PROB30 TEMPO 2003/2009 0600 BCFG SCT001 BKN003 BECMG 2007/2009 10010KT PROB30 2023/2024 3000 BR

超过4000个机场的气象观测和天气预报(METAR&TAF报告)。

可查询的气象台以黄色和红色小点在地图上表示。

将鼠标移到小点上方,可查看气象台名称。

然后点击查看天气观测和预报。

如需切换地图:点击带黑十字的绿色按钮放大地图;点击带横线的绿色按钮缩小地图;或者点击绿色箭头查看邻近地区的地图。


METAR-TAF: